createdAt,value
2023-04-18T00:00:52.748Z,82
2023-04-18T00:01:59.794Z,81
2023-04-18T00:03:06.856Z,86
2023-04-18T00:04:14.066Z,98
2023-04-18T00:05:21.275Z,91
2023-04-18T00:06:29.887Z,93
2023-04-18T00:07:36.767Z,94
2023-04-18T00:08:43.821Z,102
2023-04-18T00:09:50.792Z,89
2023-04-18T00:10:57.561Z,99
2023-04-18T00:12:06.434Z,98
2023-04-18T00:13:13.385Z,96
2023-04-18T00:14:23.397Z,95
2023-04-18T00:15:30.210Z,92
2023-04-18T00:16:37.134Z,94
2023-04-18T00:17:43.965Z,91
2023-04-18T00:18:50.844Z,93
2023-04-18T00:19:57.677Z,92
2023-04-18T00:21:04.635Z,96
2023-04-18T00:22:11.705Z,72
2023-04-18T00:23:18.689Z,69
2023-04-18T00:24:25.559Z,70
2023-04-18T00:25:36.749Z,68
2023-04-18T00:26:43.597Z,86
2023-04-18T00:27:50.462Z,85
2023-04-18T00:28:57.257Z,84
2023-04-18T00:30:04.242Z,80
2023-04-18T00:31:11.441Z,79
2023-04-18T00:32:18.958Z,73
2023-04-18T00:33:25.774Z,86
2023-04-18T00:34:32.637Z,89
2023-04-18T00:35:40.372Z,64
2023-04-18T00:36:48.096Z,93
2023-04-18T00:37:54.894Z,80
2023-04-18T00:39:01.748Z,79
2023-04-18T00:40:08.713Z,91
2023-04-18T00:41:15.779Z,88
2023-04-18T00:42:22.836Z,83
2023-04-18T00:43:29.736Z,84
2023-04-18T00:44:36.521Z,86
2023-04-18T00:45:43.393Z,85
2023-04-18T00:46:51.094Z,85
2023-04-18T00:47:57.953Z,89
2023-04-18T00:49:04.819Z,81
2023-04-18T00:50:11.897Z,88
2023-04-18T00:51:18.714Z,97
2023-04-18T00:52:25.550Z,81
2023-04-18T00:53:32.513Z,91
2023-04-18T00:54:39.547Z,86
2023-04-18T00:55:46.524Z,86
2023-04-18T00:56:56.323Z,89
2023-04-18T00:58:03.218Z,83
2023-04-18T00:59:10.079Z,92
2023-04-18T01:00:17.900Z,79
2023-04-18T01:01:24.805Z,95
2023-04-18T01:02:32.721Z,88
2023-04-18T01:03:42.785Z,88
2023-04-18T01:04:49.418Z,84
2023-04-18T01:05:57.649Z,89
2023-04-18T01:07:04.566Z,92
2023-04-18T01:08:11.471Z,86
2023-04-18T01:09:18.406Z,101
2023-04-18T01:10:25.330Z,86
2023-04-18T01:11:32.261Z,98
2023-04-18T01:12:40.080Z,89
2023-04-18T01:13:47.000Z,92
2023-04-18T01:15:01.741Z,94
2023-04-18T01:16:10.884Z,94
2023-04-18T01:17:17.709Z,89
2023-04-18T01:18:24.611Z,99
2023-04-18T01:19:31.509Z,95
2023-04-18T01:20:39.414Z,88
2023-04-18T01:21:50.358Z,92
2023-04-18T01:22:57.205Z,93
2023-04-18T01:24:04.053Z,93
2023-04-18T01:25:11.093Z,102
2023-04-18T01:26:18.013Z,98
2023-04-18T01:27:25.746Z,104
2023-04-18T01:28:32.703Z,102
2023-04-18T01:29:39.641Z,103
2023-04-18T01:30:46.634Z,100
2023-04-18T01:31:53.836Z,100
2023-04-18T01:33:01.745Z,95
2023-04-18T01:34:08.546Z,101
2023-04-18T01:35:15.580Z,102
2023-04-18T01:36:22.485Z,100
2023-04-18T01:37:32.289Z,106
2023-04-18T01:38:39.231Z,89
2023-04-18T01:39:46.115Z,98
2023-04-18T01:40:53.028Z,95
2023-04-18T01:41:59.937Z,107
2023-04-18T01:43:06.888Z,102
2023-04-18T01:44:14.058Z,106
2023-04-18T01:45:20.597Z,103
2023-04-18T01:46:27.604Z,96
2023-04-18T01:47:35.217Z,98
2023-04-18T01:48:42.186Z,103
2023-04-18T01:49:49.202Z,98
2023-04-18T01:50:56.171Z,100
2023-04-18T01:52:03.025Z,103
2023-04-18T01:53:09.953Z,97
2023-04-18T01:54:17.124Z,99
2023-04-18T01:55:23.965Z,98
2023-04-18T01:56:30.877Z,107
2023-04-18T01:57:38.513Z,104
2023-04-18T01:58:45.438Z,98
2023-04-18T01:59:52.383Z,97
2023-04-18T02:01:00.089Z,92
2023-04-18T02:02:09.870Z,100
2023-04-18T02:03:16.761Z,102
2023-04-18T02:04:24.364Z,95
2023-04-18T02:05:31.137Z,100
2023-04-18T02:06:37.972Z,101
2023-04-18T02:07:47.469Z,104
2023-04-18T02:08:54.402Z,98
2023-04-18T02:10:01.361Z,99
2023-04-18T02:11:08.361Z,99
2023-04-18T02:12:21.443Z,105
2023-04-18T02:13:28.285Z,101
2023-04-18T02:14:35.182Z,93
2023-04-18T02:15:42.039Z,97
2023-04-18T02:16:51.818Z,97
2023-04-18T02:17:58.716Z,91
2023-04-18T02:19:05.658Z,78
2023-04-18T02:20:13.162Z,91
2023-04-18T02:21:21.999Z,91
2023-04-18T02:22:28.718Z,84
2023-04-18T02:23:35.508Z,82
2023-04-18T02:24:42.604Z,90
2023-04-18T02:25:49.561Z,83
2023-04-18T02:26:56.447Z,83
2023-04-18T02:28:03.355Z,88
2023-04-18T02:29:10.191Z,88
2023-04-18T02:30:18.031Z,83
2023-04-18T02:31:25.700Z,91
2023-04-18T02:32:32.801Z,87
2023-04-18T02:33:39.588Z,86
2023-04-18T02:34:49.316Z,85
2023-04-18T02:35:57.991Z,80
2023-04-18T02:37:04.875Z,91
2023-04-18T02:38:11.712Z,83
2023-04-18T02:39:18.611Z,82
2023-04-18T02:40:25.548Z,85
2023-04-18T02:41:32.443Z,82
2023-04-18T02:42:39.373Z,80
2023-04-18T02:43:47.068Z,85
2023-04-18T02:44:53.985Z,86
2023-04-18T02:46:02.930Z,84
2023-04-18T02:47:09.784Z,90
2023-04-18T02:48:16.747Z,87
2023-04-18T02:49:23.590Z,87
2023-04-18T02:50:30.507Z,82
2023-04-18T02:51:37.410Z,95
2023-04-18T02:52:44.301Z,92
2023-04-18T02:53:52.202Z,92
2023-04-18T02:54:59.049Z,89
2023-04-18T02:56:05.942Z,87
2023-04-18T02:57:12.822Z,90
2023-04-18T02:58:19.799Z,91
2023-04-18T02:59:26.929Z,90
2023-04-18T03:00:33.841Z,88
2023-04-18T03:01:40.787Z,93
2023-04-18T03:02:47.702Z,85
2023-04-18T03:03:54.533Z,88
2023-04-18T03:05:02.460Z,85
2023-04-18T03:06:09.402Z,82
2023-04-18T03:07:16.274Z,90
2023-04-18T03:08:23.144Z,83
2023-04-18T03:09:31.495Z,88
2023-04-18T03:10:39.859Z,84
2023-04-18T03:11:46.806Z,83
2023-04-18T03:12:53.676Z,85
2023-04-18T03:14:00.603Z,81
2023-04-18T03:15:07.704Z,77
2023-04-18T03:16:18.633Z,77
2023-04-18T03:17:25.682Z,68
2023-04-18T03:18:32.676Z,80
2023-04-18T03:19:39.493Z,74
2023-04-18T03:20:46.509Z,76
2023-04-18T03:21:54.561Z,72
2023-04-18T03:23:01.477Z,73
2023-04-18T03:24:09.673Z,79
2023-04-18T03:25:18.122Z,76
2023-04-18T03:26:24.957Z,71
2023-04-18T03:27:32.716Z,71
2023-04-18T03:28:39.773Z,72
2023-04-18T03:29:46.726Z,78
2023-04-18T03:30:53.931Z,73
2023-04-18T03:32:00.890Z,71
2023-04-18T03:33:11.021Z,76
2023-04-18T03:34:17.837Z,81
2023-04-18T03:35:25.577Z,81
2023-04-18T03:36:32.474Z,81
2023-04-18T03:37:39.476Z,80
2023-04-18T03:38:46.399Z,88
2023-04-18T03:39:53.226Z,84
2023-04-18T03:41:06.847Z,75
2023-04-18T03:42:13.633Z,85
2023-04-18T03:43:20.448Z,90
2023-04-18T03:44:27.602Z,82
2023-04-18T03:45:37.607Z,77
2023-04-18T03:46:46.631Z,86
2023-04-18T03:47:54.769Z,87
2023-04-18T03:49:01.663Z,82
2023-04-18T03:50:11.123Z,87
2023-04-18T03:51:17.936Z,88
2023-04-18T03:52:30.106Z,84
2023-04-18T03:53:36.975Z,78
2023-04-18T03:54:44.744Z,78
2023-04-18T03:55:51.641Z,83
2023-04-18T03:56:58.629Z,79
2023-04-18T03:58:05.526Z,79
2023-04-18T03:59:12.373Z,81
2023-04-18T04:00:19.336Z,87
2023-04-18T04:01:26.967Z,84
2023-04-18T04:02:36.332Z,81
2023-04-18T04:03:43.169Z,84
2023-04-18T04:04:51.323Z,81
2023-04-18T04:05:58.189Z,76
2023-04-18T04:07:05.157Z,85
2023-04-18T04:08:12.065Z,81
2023-04-18T04:09:18.923Z,78
2023-04-18T04:10:25.804Z,80
2023-04-18T04:11:32.683Z,82
2023-04-18T04:12:39.689Z,80
2023-04-18T04:13:46.472Z,86
2023-04-18T04:14:54.460Z,83
2023-04-18T04:16:01.783Z,83
2023-04-18T04:17:08.807Z,80
2023-04-18T04:18:15.795Z,79
2023-04-18T04:19:22.650Z,56
2023-04-18T04:20:29.675Z,82
2023-04-18T04:21:36.597Z,78
2023-04-18T04:22:44.380Z,84
2023-04-18T04:23:51.370Z,79
2023-04-18T04:24:58.945Z,85
2023-04-18T04:26:05.769Z,79
2023-04-18T04:27:12.717Z,80
2023-04-18T04:28:20.348Z,79
2023-04-18T04:29:27.383Z,76
2023-04-18T04:30:36.855Z,81
2023-04-18T04:31:43.878Z,77
2023-04-18T04:32:52.637Z,81
2023-04-18T04:34:00.454Z,80
2023-04-18T04:35:10.171Z,77
2023-04-18T04:36:18.719Z,80
2023-04-18T04:37:24.113Z,76
2023-04-18T04:38:31.302Z,82
2023-04-18T04:39:38.087Z,80
2023-04-18T04:40:44.962Z,79
2023-04-18T04:41:51.788Z,83
2023-04-18T04:42:58.662Z,79
2023-04-18T04:44:05.533Z,87
2023-04-18T04:45:12.473Z,85
2023-04-18T04:46:19.338Z,80
2023-04-18T04:47:26.185Z,89
2023-04-18T04:48:33.048Z,87
2023-04-18T04:49:39.992Z,84
2023-04-18T04:50:47.842Z,89
2023-04-18T04:51:54.657Z,84
2023-04-18T04:53:01.491Z,83
2023-04-18T04:54:11.500Z,80
2023-04-18T04:55:18.725Z,83
2023-04-18T04:56:26.346Z,75
2023-04-18T04:57:33.243Z,81
2023-04-18T04:58:40.199Z,81
2023-04-18T04:59:47.136Z,81
2023-04-18T05:00:54.121Z,80
2023-04-18T05:02:00.815Z,82
2023-04-18T05:03:07.752Z,60
2023-04-18T05:04:14.939Z,80
2023-04-18T05:05:21.378Z,77
2023-04-18T05:06:28.189Z,74
2023-04-18T05:07:35.025Z,75
2023-04-18T05:08:41.933Z,76
2023-04-18T05:09:48.854Z,74
2023-04-18T05:10:55.709Z,71
2023-04-18T05:12:02.600Z,60
2023-04-18T05:13:09.488Z,65
2023-04-18T05:14:16.534Z,69
2023-04-18T05:15:23.233Z,69
2023-04-18T05:16:30.188Z,76
2023-04-18T05:17:39.150Z,70
2023-04-18T05:18:47.193Z,69
2023-04-18T05:19:57.409Z,79
2023-04-18T05:21:04.489Z,80
2023-04-18T05:22:11.372Z,71
2023-04-18T05:23:18.344Z,70
2023-04-18T05:24:25.194Z,69
2023-04-18T05:25:34.403Z,54
2023-04-18T05:26:41.365Z,72
2023-04-18T05:27:48.283Z,66
2023-04-18T05:28:55.118Z,66
2023-04-18T05:30:01.965Z,71
2023-04-18T05:31:09.520Z,69
2023-04-18T05:32:16.333Z,69
2023-04-18T05:33:25.661Z,65
2023-04-18T05:34:32.525Z,69
2023-04-18T05:35:40.205Z,70
2023-04-18T05:36:47.014Z,65
2023-04-18T05:37:53.956Z,63
2023-04-18T05:39:03.785Z,68
2023-04-18T05:40:10.752Z,72
2023-04-18T05:41:17.681Z,67
2023-04-18T05:42:24.542Z,63
2023-04-18T05:43:31.322Z,63
2023-04-18T05:44:38.307Z,48
2023-04-18T05:45:45.314Z,62
2023-04-18T05:46:52.252Z,53
2023-04-18T05:47:59.189Z,62
2023-04-18T05:49:05.989Z,47
2023-04-18T05:50:12.891Z,60
2023-04-18T05:51:19.755Z,58
2023-04-18T05:52:26.557Z,51
2023-04-18T05:53:33.343Z,59
2023-04-18T05:54:40.307Z,57
2023-04-18T05:55:47.166Z,54
2023-04-18T05:56:54.039Z,57
2023-04-18T05:58:00.949Z,45
2023-04-18T05:59:07.770Z,49
2023-04-18T06:00:14.710Z,26
2023-04-18T06:01:21.775Z,34
2023-04-18T06:02:28.909Z,25
2023-04-18T06:03:36.027Z,34
2023-04-18T06:04:42.932Z,25
2023-04-18T06:05:49.617Z,30
2023-04-18T06:06:56.379Z,39
2023-04-18T06:08:03.405Z,37
2023-04-18T06:09:10.290Z,30
2023-04-18T06:10:17.119Z,26
2023-04-18T06:11:23.978Z,33
2023-04-18T06:12:30.798Z,30
2023-04-18T06:13:37.947Z,48
2023-04-18T06:14:44.842Z,45
2023-04-18T06:15:51.703Z,39
2023-04-18T06:16:58.586Z,26
2023-04-18T06:18:05.547Z,33
2023-04-18T06:19:12.301Z,32
2023-04-18T06:20:19.128Z,25
2023-04-18T06:21:25.937Z,28
2023-04-18T06:22:32.919Z,31
2023-04-18T06:23:39.733Z,26
2023-04-18T06:24:46.718Z,30
2023-04-18T06:25:53.561Z,28
2023-04-18T06:27:00.413Z,31
2023-04-18T06:28:07.355Z,25
2023-04-18T06:29:15.006Z,30
2023-04-18T06:30:22.044Z,33
2023-04-18T06:31:28.947Z,25
2023-04-18T06:32:35.710Z,25
2023-04-18T06:33:42.612Z,31
2023-04-18T06:34:49.418Z,25
2023-04-18T06:35:56.248Z,25
2023-04-18T06:37:03.148Z,32
2023-04-18T06:38:10.086Z,25
2023-04-18T06:39:16.898Z,35
2023-04-18T06:40:23.749Z,51
2023-04-18T06:41:30.615Z,34
2023-04-18T06:42:37.543Z,28
2023-04-18T06:43:59.531Z,51
2023-04-18T06:44:51.293Z,25
2023-04-18T06:45:58.391Z,27
2023-04-18T06:47:05.270Z,37
2023-04-18T06:48:12.263Z,29
2023-04-18T06:49:20.721Z,25
2023-04-18T06:50:26.096Z,28
2023-04-18T06:51:32.999Z,25
2023-04-18T06:52:39.924Z,32
2023-04-18T06:53:49.761Z,27
2023-04-18T06:54:56.630Z,31
2023-04-18T06:56:03.514Z,25
2023-04-18T06:57:10.491Z,32
2023-04-18T06:58:17.397Z,25
2023-04-18T06:59:24.288Z,30
2023-04-18T07:00:31.925Z,25
2023-04-18T07:01:38.994Z,38
2023-04-18T07:02:45.879Z,28
2023-04-18T07:03:52.722Z,27
2023-04-18T07:04:59.611Z,29
2023-04-18T07:06:06.389Z,29
2023-04-18T07:07:13.266Z,34
2023-04-18T07:08:20.191Z,31
2023-04-18T07:09:27.062Z,31
2023-04-18T07:10:33.901Z,32
2023-04-18T07:11:40.864Z,28
2023-04-18T07:12:47.810Z,26
2023-04-18T07:13:54.747Z,25
2023-04-18T07:15:01.573Z,37
2023-04-18T07:16:09.128Z,27
2023-04-18T07:17:16.020Z,26
2023-04-18T07:18:30.551Z,25
2023-04-18T07:19:30.193Z,36
2023-04-18T07:20:37.347Z,28
2023-04-18T07:21:44.170Z,32
2023-04-18T07:22:50.968Z,38
2023-04-18T07:23:57.767Z,29
2023-04-18T07:25:04.726Z,37
2023-04-18T07:26:11.768Z,28
2023-04-18T07:27:18.649Z,32
2023-04-18T07:28:25.512Z,28
2023-04-18T07:29:32.387Z,25
2023-04-18T07:30:39.277Z,25
2023-04-18T07:31:46.251Z,36
2023-04-18T07:32:53.141Z,32
2023-04-18T07:33:59.865Z,34
2023-04-18T07:35:06.799Z,28
2023-04-18T07:36:13.590Z,30
2023-04-18T07:37:20.492Z,37
2023-04-18T07:38:27.331Z,27
2023-04-18T07:39:34.241Z,25
2023-04-18T07:40:41.077Z,38
2023-04-18T07:41:50.835Z,30
2023-04-18T07:43:01.875Z,33
2023-04-18T07:44:08.915Z,30
2023-04-18T07:45:15.840Z,25
2023-04-18T07:46:22.731Z,25
2023-04-18T07:47:30.518Z,25
2023-04-18T07:48:36.259Z,27
2023-04-18T07:49:43.166Z,28
2023-04-18T07:50:50.014Z,25
2023-04-18T07:51:56.914Z,26
2023-04-18T07:53:04.651Z,36
2023-04-18T07:54:13.407Z,27
2023-04-18T07:55:20.208Z,28
2023-04-18T07:56:27.102Z,26
2023-04-18T07:57:33.968Z,35
2023-04-18T07:58:41.262Z,33
2023-04-18T07:59:48.052Z,25
2023-04-18T08:00:54.937Z,31
2023-04-18T08:02:02.107Z,25
2023-04-18T08:03:09.327Z,26
2023-04-18T08:04:17.126Z,25
2023-04-18T08:05:23.991Z,37
2023-04-18T08:06:30.691Z,26
2023-04-18T08:07:37.747Z,35
2023-04-18T08:08:44.719Z,32
2023-04-18T08:09:51.564Z,31
2023-04-18T08:10:58.496Z,28
2023-04-18T08:12:05.374Z,30
2023-04-18T08:13:14.288Z,25
2023-04-18T08:14:21.277Z,35
2023-04-18T08:15:28.110Z,43
2023-04-18T08:16:35.014Z,33
2023-04-18T08:17:41.881Z,30
2023-04-18T08:18:49.118Z,29
2023-04-18T08:19:56.029Z,29
2023-04-18T08:21:02.880Z,25
2023-04-18T08:22:09.801Z,36
2023-04-18T08:23:16.833Z,33
2023-04-18T08:24:23.723Z,35
2023-04-18T08:25:30.554Z,38
2023-04-18T08:26:37.359Z,36
2023-04-18T08:27:44.245Z,33
2023-04-18T08:28:51.208Z,33
2023-04-18T08:29:59.051Z,25
2023-04-18T08:31:05.895Z,25
2023-04-18T08:32:12.676Z,30
2023-04-18T08:33:19.588Z,25
2023-04-18T08:34:26.581Z,35
2023-04-18T08:35:33.531Z,33
2023-04-18T08:36:40.265Z,30
2023-04-18T08:37:47.111Z,37
2023-04-18T08:38:54.143Z,33
2023-04-18T08:40:01.275Z,32
2023-04-18T08:41:09.416Z,25
2023-04-18T08:42:16.341Z,26
2023-04-18T08:43:23.147Z,27
2023-04-18T08:44:30.019Z,28
2023-04-18T08:45:38.010Z,43
2023-04-18T08:46:44.856Z,32
2023-04-18T08:47:51.729Z,32
2023-04-18T08:48:58.670Z,25
2023-04-18T08:50:05.521Z,25
2023-04-18T08:51:12.479Z,29
2023-04-18T08:52:19.545Z,31
2023-04-18T08:53:26.346Z,38
2023-04-18T08:54:33.412Z,28
2023-04-18T08:55:40.219Z,32
2023-04-18T08:56:47.057Z,30
2023-04-18T08:58:04.279Z,31
2023-04-18T08:59:11.494Z,25
2023-04-18T09:00:18.277Z,30
2023-04-18T09:01:25.309Z,25
2023-04-18T09:02:43.151Z,31
2023-04-18T09:03:49.507Z,31
2023-04-18T09:04:56.329Z,25
2023-04-18T09:06:03.278Z,28
2023-04-18T09:07:10.283Z,26
2023-04-18T09:08:17.094Z,27
2023-04-18T09:09:27.288Z,31
2023-04-18T09:10:46.607Z,34
2023-04-18T09:11:51.252Z,25
2023-04-18T09:13:03.821Z,30
2023-04-18T09:14:10.251Z,25
2023-04-18T09:15:27.467Z,33
2023-04-18T09:16:34.579Z,29
2023-04-18T09:17:46.462Z,32
2023-04-18T09:18:53.332Z,31
2023-04-18T09:20:10.601Z,25
2023-04-18T09:21:17.373Z,32
2023-04-18T09:22:24.198Z,27
2023-04-18T09:23:31.119Z,25
2023-04-18T09:24:37.976Z,27
2023-04-18T09:25:45.397Z,31
2023-04-18T09:26:51.707Z,37
2023-04-18T09:27:58.530Z,29
2023-04-18T09:29:05.394Z,27
2023-04-18T09:30:12.319Z,29
2023-04-18T09:31:19.189Z,40
2023-04-18T09:32:26.875Z,35
2023-04-18T09:33:33.866Z,35
2023-04-18T09:34:40.718Z,30
2023-04-18T09:35:57.886Z,25
2023-04-18T09:37:15.025Z,25
2023-04-18T09:38:21.850Z,28
2023-04-18T09:39:39.103Z,31
2023-04-18T09:40:45.971Z,32
2023-04-18T09:41:52.817Z,30
2023-04-18T09:43:02.222Z,25
2023-04-18T09:44:19.518Z,32
2023-04-18T09:45:26.213Z,37
2023-04-18T09:46:33.160Z,25
2023-04-18T09:47:39.950Z,35
2023-04-18T09:48:46.689Z,38
2023-04-18T09:49:53.537Z,36
2023-04-18T09:51:00.371Z,32
2023-04-18T09:52:10.018Z,30
2023-04-18T09:53:18.282Z,37
2023-04-18T09:54:23.658Z,30
2023-04-18T09:55:30.541Z,28
2023-04-18T09:56:37.384Z,37
2023-04-18T09:57:44.178Z,35
2023-04-18T09:58:50.997Z,41
2023-04-18T10:00:00.775Z,38
2023-04-18T10:01:07.732Z,35
2023-04-18T10:02:14.664Z,25
2023-04-18T10:03:24.616Z,25
2023-04-18T10:04:31.536Z,38
2023-04-18T10:05:38.279Z,28
2023-04-18T10:06:45.039Z,25
2023-04-18T10:07:51.873Z,34
2023-04-18T10:08:58.816Z,47
2023-04-18T10:10:08.706Z,76
2023-04-18T10:11:15.590Z,53
2023-04-18T10:12:24.617Z,43
2023-04-18T10:13:31.486Z,47
2023-04-18T10:14:38.386Z,48
2023-04-18T10:15:45.929Z,37
2023-04-18T10:16:52.776Z,51
2023-04-18T10:18:04.920Z,28
2023-04-18T10:19:06.513Z,39
2023-04-18T10:20:23.763Z,30
2023-04-18T10:21:33.206Z,32
2023-04-18T10:22:40.990Z,51
2023-04-18T10:23:47.907Z,43
2023-04-18T10:24:54.909Z,41
2023-04-18T10:26:01.770Z,34
2023-04-18T10:27:11.538Z,25
2023-04-18T10:28:21.213Z,35
2023-04-18T10:29:30.898Z,32
2023-04-18T10:30:48.158Z,43
2023-04-18T10:31:55.117Z,38
2023-04-18T10:33:02.067Z,34
2023-04-18T10:34:19.368Z,40
2023-04-18T10:35:26.069Z,35
2023-04-18T10:36:32.989Z,31
2023-04-18T10:37:39.755Z,57
2023-04-18T10:38:54.503Z,43
2023-04-18T10:40:04.187Z,40
2023-04-18T10:41:11.313Z,52
2023-04-18T10:42:18.181Z,44
2023-04-18T10:43:30.150Z,29
2023-04-18T10:44:36.991Z,40
2023-04-18T10:45:43.803Z,34
2023-04-18T10:46:50.704Z,34
2023-04-18T10:47:57.568Z,41
2023-04-18T10:49:14.944Z,33
2023-04-18T10:50:24.272Z,28
2023-04-18T10:51:31.114Z,26
2023-04-18T10:52:37.916Z,41
2023-04-18T10:53:44.830Z,46
2023-04-18T10:54:51.666Z,51
2023-04-18T10:55:58.493Z,40
2023-04-18T10:57:05.355Z,31
2023-04-18T10:58:12.149Z,25
2023-04-18T10:59:19.030Z,28
2023-04-18T11:00:25.786Z,38
2023-04-18T11:01:33.104Z,48
2023-04-18T11:02:39.714Z,33
2023-04-18T11:03:51.566Z,35
2023-04-18T11:04:58.251Z,40
2023-04-18T11:06:05.070Z,43
2023-04-18T11:07:12.108Z,43
2023-04-18T11:08:18.922Z,37
2023-04-18T11:09:28.594Z,33
2023-04-18T11:10:35.304Z,40
2023-04-18T11:11:42.198Z,47
2023-04-18T11:12:49.067Z,36
2023-04-18T11:13:55.891Z,32
2023-04-18T11:15:02.825Z,25
2023-04-18T11:16:15.003Z,31
2023-04-18T11:17:32.159Z,34
2023-04-18T11:18:41.612Z,30
2023-04-18T11:19:48.412Z,42
2023-04-18T11:20:55.367Z,37
2023-04-18T11:22:02.333Z,28
2023-04-18T11:23:09.218Z,31
2023-04-18T11:24:21.302Z,29
2023-04-18T11:25:28.141Z,40
2023-04-18T11:26:38.483Z,46
2023-04-18T11:27:45.289Z,35
2023-04-18T11:28:52.129Z,50
2023-04-18T11:30:01.762Z,45
2023-04-18T11:31:08.932Z,30
2023-04-18T11:32:15.892Z,32
2023-04-18T11:33:22.821Z,34
2023-04-18T11:34:29.737Z,25
2023-04-18T11:35:36.442Z,37
2023-04-18T11:36:45.967Z,37
2023-04-18T11:37:52.754Z,29
2023-04-18T11:38:59.702Z,32
2023-04-18T11:40:06.549Z,45
2023-04-18T11:41:13.452Z,40
2023-04-18T11:42:20.370Z,43
2023-04-18T11:43:29.764Z,38
2023-04-18T11:44:36.622Z,38
2023-04-18T11:45:43.609Z,39
2023-04-18T11:46:55.606Z,29
2023-04-18T11:48:02.583Z,33
2023-04-18T11:49:09.425Z,31
2023-04-18T11:50:37.021Z,34
2023-04-18T11:51:45.075Z,25
2023-04-18T11:52:51.911Z,41
2023-04-18T11:53:58.712Z,31
2023-04-18T11:55:05.593Z,29
2023-04-18T11:56:17.743Z,26
2023-04-18T11:57:24.529Z,25
2023-04-18T11:58:31.392Z,52
2023-04-18T11:59:38.212Z,45
2023-04-18T12:00:45.040Z,40
2023-04-18T12:01:53.138Z,46
2023-04-18T12:03:04.029Z,54
2023-04-18T12:04:10.851Z,59
2023-04-18T12:05:17.816Z,63
2023-04-18T12:06:29.716Z,47
2023-04-18T12:07:46.721Z,30
2023-04-18T12:08:54.092Z,39
2023-04-18T12:10:03.024Z,49
2023-04-18T12:11:10.194Z,43
2023-04-18T12:12:17.135Z,52
2023-04-18T12:13:24.060Z,47
2023-04-18T12:14:30.985Z,41
2023-04-18T12:15:37.937Z,57
2023-04-18T12:16:44.728Z,39
2023-04-18T12:17:54.492Z,37
2023-04-18T12:19:04.101Z,38
2023-04-18T12:20:10.964Z,67
2023-04-18T12:21:17.809Z,34
2023-04-18T12:22:24.877Z,44
2023-04-18T12:23:39.581Z,32
2023-04-18T12:24:46.479Z,42
2023-04-18T12:25:53.385Z,42
2023-04-18T12:27:05.844Z,28
2023-04-18T12:28:12.854Z,40
2023-04-18T12:29:19.730Z,41
2023-04-18T12:30:26.558Z,30
2023-04-18T12:31:33.465Z,39
2023-04-18T12:32:40.222Z,26
2023-04-18T12:33:47.057Z,29
2023-04-18T12:34:53.997Z,27
2023-04-18T12:36:00.888Z,49
2023-04-18T12:37:08.473Z,40
2023-04-18T12:38:19.513Z,25
2023-04-18T12:39:29.432Z,52
2023-04-18T12:40:36.250Z,47
2023-04-18T12:41:43.076Z,41
2023-04-18T12:42:49.954Z,33
2023-04-18T12:43:56.803Z,38
2023-04-18T12:45:03.612Z,54
2023-04-18T12:46:10.961Z,56
2023-04-18T12:47:17.797Z,43
2023-04-18T12:48:24.730Z,32
2023-04-18T12:49:31.730Z,36
2023-04-18T12:50:38.503Z,25
2023-04-18T12:51:45.332Z,26
2023-04-18T12:52:52.150Z,46
2023-04-18T12:53:59.198Z,43
2023-04-18T12:55:06.045Z,40
2023-04-18T12:56:13.055Z,25
2023-04-18T12:57:19.883Z,33
2023-04-18T12:58:26.638Z,25
2023-04-18T12:59:34.383Z,36
2023-04-18T13:00:41.296Z,42
2023-04-18T13:01:48.120Z,55
2023-04-18T13:02:55.181Z,51
2023-04-18T13:04:22.222Z,56
2023-04-18T13:05:31.988Z,45
2023-04-18T13:06:35.766Z,43
2023-04-18T13:07:42.547Z,58
2023-04-18T13:08:49.306Z,65
2023-04-18T13:09:56.113Z,75
2023-04-18T13:11:02.839Z,60
2023-04-18T13:12:09.541Z,59
2023-04-18T13:13:16.344Z,45
2023-04-18T13:14:23.210Z,38
2023-04-18T13:15:30.267Z,56
2023-04-18T13:16:37.097Z,46
2023-04-18T13:17:43.907Z,56
2023-04-18T13:18:50.702Z,37
2023-04-18T13:19:57.469Z,37
2023-04-18T13:21:04.311Z,33
2023-04-18T13:22:11.152Z,32
2023-04-18T13:23:18.019Z,25
2023-04-18T13:24:24.771Z,25
2023-04-18T13:25:31.633Z,26
2023-04-18T13:26:38.464Z,34
2023-04-18T13:27:45.438Z,43
2023-04-18T13:28:52.339Z,34
2023-04-18T13:29:59.213Z,39
2023-04-18T13:31:06.051Z,37
2023-04-18T13:32:13.044Z,40
2023-04-18T13:33:19.875Z,36
2023-04-18T13:34:26.724Z,35
2023-04-18T13:35:33.634Z,33
2023-04-18T13:36:40.548Z,38
2023-04-18T13:37:47.354Z,35
2023-04-18T13:38:54.381Z,39
2023-04-18T13:40:01.157Z,36
2023-04-18T13:42:58.980Z,38
2023-04-18T13:44:05.873Z,34
2023-04-18T13:45:12.784Z,35
2023-04-18T13:46:19.814Z,50
2023-04-18T13:47:26.682Z,42
2023-04-18T13:48:33.570Z,41
2023-04-18T13:49:41.270Z,40
2023-04-18T13:50:48.249Z,35
2023-04-18T13:51:56.140Z,29
2023-04-18T13:53:03.020Z,38
2023-04-18T13:54:09.904Z,30
2023-04-18T13:55:16.832Z,29
2023-04-18T13:56:24.682Z,25
2023-04-18T13:57:31.576Z,37
2023-04-18T13:58:38.539Z,25
2023-04-18T13:59:45.462Z,41
2023-04-18T14:00:52.389Z,35
2023-04-18T14:01:59.393Z,35
2023-04-18T14:03:06.489Z,31
2023-04-18T14:04:13.373Z,25
2023-04-18T14:05:20.084Z,33
2023-04-18T14:06:27.014Z,30
2023-04-18T14:07:33.933Z,30
2023-04-18T14:08:40.932Z,34
2023-04-18T14:09:47.781Z,38
2023-04-18T14:10:54.629Z,47
2023-04-18T14:12:01.506Z,42
2023-04-18T14:13:08.595Z,40
2023-04-18T14:14:15.647Z,46
2023-04-18T14:17:00.295Z,32
2023-04-18T14:18:07.321Z,34
2023-04-18T14:19:14.376Z,30
2023-04-18T14:20:20.994Z,42
2023-04-18T14:21:27.854Z,25
2023-04-18T14:22:34.963Z,34
2023-04-18T14:23:42.776Z,37
2023-04-18T14:24:49.689Z,38
2023-04-18T14:25:56.593Z,42
2023-04-18T14:27:03.422Z,30
2023-04-18T14:28:10.452Z,36
2023-04-18T14:29:17.375Z,43
2023-04-18T14:30:24.248Z,25
2023-04-18T14:31:31.013Z,36
2023-04-18T14:32:37.881Z,37
2023-04-18T14:33:44.836Z,28
2023-04-18T14:34:51.781Z,37
2023-04-18T14:35:58.606Z,46
2023-04-18T14:37:05.541Z,27
2023-04-18T14:38:12.438Z,31
2023-04-18T14:39:19.375Z,31
2023-04-18T14:40:26.351Z,31
2023-04-18T14:41:33.240Z,46
2023-04-18T14:42:40.079Z,46
2023-04-18T14:43:46.868Z,42
2023-04-18T14:44:53.738Z,39
2023-04-18T14:46:00.749Z,40
2023-04-18T14:47:07.769Z,37
2023-04-18T14:48:14.534Z,33
2023-04-18T14:49:21.469Z,31
2023-04-18T14:50:28.390Z,29
2023-04-18T14:51:35.345Z,31
2023-04-18T14:52:43.094Z,32
2023-04-18T14:53:50.003Z,25
2023-04-18T14:54:57.758Z,32
2023-04-18T14:56:04.579Z,41
2023-04-18T14:57:11.450Z,36
2023-04-18T14:58:18.449Z,38
2023-04-18T14:59:25.254Z,43
2023-04-18T15:00:32.078Z,31
2023-04-18T15:01:39.000Z,28
2023-04-18T15:02:47.020Z,36
2023-04-18T15:03:53.792Z,40
2023-04-18T15:05:00.632Z,45
2023-04-18T15:06:07.447Z,37
2023-04-18T15:07:14.389Z,30
2023-04-18T15:08:21.234Z,46
2023-04-18T15:09:28.223Z,50
2023-04-18T15:10:35.238Z,44
2023-04-18T15:11:42.173Z,36
2023-04-18T15:12:50.246Z,42
2023-04-18T15:13:57.125Z,37
2023-04-18T15:15:04.090Z,43
2023-04-18T15:16:11.411Z,41
2023-04-18T15:17:18.319Z,44
2023-04-18T15:18:25.029Z,28
2023-04-18T15:19:32.028Z,44
2023-04-18T15:20:38.923Z,45
2023-04-18T15:21:45.873Z,46
2023-04-18T15:22:52.875Z,38
2023-04-18T15:23:59.680Z,42
2023-04-18T15:25:06.693Z,40
2023-04-18T15:26:13.654Z,42
2023-04-18T15:27:21.436Z,42
2023-04-18T15:28:28.434Z,43
2023-04-18T15:29:35.278Z,29
2023-04-18T15:30:42.159Z,40
2023-04-18T15:31:48.991Z,33
2023-04-18T15:32:55.945Z,30
2023-04-18T15:34:02.893Z,29
2023-04-18T15:35:10.178Z,30
2023-04-18T15:36:17.045Z,31
2023-04-18T15:37:23.953Z,34
2023-04-18T15:38:32.808Z,30
2023-04-18T15:39:38.528Z,37
2023-04-18T15:40:45.565Z,31
2023-04-18T15:41:52.397Z,34
2023-04-18T15:42:59.324Z,32
2023-04-18T15:44:07.768Z,26
2023-04-18T15:45:13.585Z,25
2023-04-18T15:46:20.705Z,30
2023-04-18T15:47:27.663Z,25
2023-04-18T15:48:34.671Z,29
2023-04-18T15:49:41.530Z,30
2023-04-18T15:50:48.496Z,28
2023-04-18T15:51:55.415Z,35
2023-04-18T15:53:02.470Z,27
2023-04-18T15:54:09.301Z,27
2023-04-18T15:55:16.159Z,25
2023-04-18T15:56:22.980Z,28
2023-04-18T15:57:32.613Z,31
2023-04-18T15:58:39.579Z,35
2023-04-18T15:59:46.556Z,34
2023-04-18T16:00:53.410Z,34
2023-04-18T16:02:00.476Z,27
2023-04-18T16:03:07.363Z,34
2023-04-18T16:04:14.568Z,30
2023-04-18T16:05:21.230Z,29